createdAt,value
2022-11-27T00:05:33.789Z,99314.00
2022-11-27T00:13:21.482Z,99318.00
2022-11-27T00:20:10.137Z,99298.00
2022-11-27T00:23:53.071Z,99314.00
2022-11-27T00:30:41.429Z,99292.00
2022-11-27T00:37:29.913Z,99288.00
2022-11-27T00:52:46.772Z,99272.00
2022-11-27T00:55:21.483Z,99251.00
2022-11-27T01:02:01.662Z,99239.00
2022-11-27T01:13:55.130Z,99229.00
2022-11-27T01:16:43.270Z,99204.00
2022-11-27T01:27:46.871Z,99204.00
2022-11-27T01:34:35.223Z,99193.00
2022-11-27T01:41:27.596Z,99199.00
2022-11-27T01:48:15.269Z,99199.00
2022-11-27T01:55:08.417Z,99174.00
2022-11-27T02:01:48.587Z,99163.00
2022-11-27T02:12:59.304Z,99177.00
2022-11-27T02:28:43.351Z,99162.00
2022-11-27T02:31:51.894Z,99151.00
2022-11-27T02:39:04.247Z,99179.00
2022-11-27T02:45:53.109Z,99169.00
2022-11-27T02:48:34.747Z,99147.00
2022-11-27T02:52:27.301Z,99161.00
2022-11-27T03:03:37.487Z,99165.00
2022-11-27T03:19:21.318Z,99141.00
2022-11-27T03:22:35.514Z,99143.00
2022-11-27T03:25:29.919Z,99154.00
2022-11-27T03:32:16.265Z,99146.00
2022-11-27T03:39:07.878Z,99133.00
2022-11-27T03:46:18.102Z,99130.00
2022-11-27T03:49:05.741Z,99122.00
2022-11-27T03:51:52.670Z,99127.00
2022-11-27T03:58:37.922Z,99133.00
2022-11-27T04:05:59.405Z,99130.00
2022-11-27T04:08:59.328Z,99128.00
2022-11-27T04:15:48.233Z,99114.00
2022-11-27T04:22:28.878Z,99111.00
2022-11-27T04:29:15.310Z,99102.00
2022-11-27T04:32:19.178Z,99116.00
2022-11-27T04:43:18.554Z,99089.00
2022-11-27T04:50:30.934Z,99076.00
2022-11-27T04:57:18.431Z,99094.00
2022-11-27T05:04:05.784Z,99080.00
2022-11-27T05:06:46.642Z,99104.00
2022-11-27T05:13:30.175Z,99104.00
2022-11-27T05:20:35.878Z,99073.00
2022-11-27T05:27:26.461Z,99055.00
2022-11-27T05:34:15.225Z,99030.00
2022-11-27T05:41:09.818Z,99060.00
2022-11-27T05:47:54.099Z,99063.00
2022-11-27T05:54:42.486Z,99058.00
2022-11-27T06:01:29.573Z,99048.00
2022-11-27T06:08:11.503Z,99100.00
2022-11-27T06:14:58.541Z,99066.00
2022-11-27T06:21:46.700Z,99063.00
2022-11-27T06:28:28.190Z,99071.00
2022-11-27T06:35:14.525Z,99077.00
2022-11-27T06:42:03.642Z,99089.00
2022-11-27T06:48:53.004Z,99088.00
2022-11-27T06:52:14.148Z,99082.00
2022-11-27T06:58:56.636Z,99072.00
2022-11-27T07:05:47.070Z,99059.00
2022-11-27T07:12:34.087Z,99068.00
2022-11-27T07:19:20.676Z,99044.00
2022-11-27T07:26:10.654Z,99051.00
2022-11-27T07:32:51.775Z,99039.00
2022-11-27T07:40:01.460Z,99038.00
2022-11-27T07:46:48.623Z,99016.00
2022-11-27T07:53:32.116Z,99015.00
2022-11-27T08:00:23.727Z,99011.00
2022-11-27T08:07:12.230Z,98997.00
2022-11-27T08:14:00.523Z,98999.00
2022-11-27T08:20:47.582Z,98984.00
2022-11-27T08:27:36.565Z,98994.00
2022-11-27T08:34:23.644Z,98983.00
2022-11-27T08:41:11.025Z,98982.00
2022-11-27T08:48:04.826Z,98961.00
2022-11-27T08:54:33.720Z,98964.00
2022-11-27T09:01:23.716Z,98961.00
2022-11-27T09:08:21.526Z,98968.00
2022-11-27T09:15:09.946Z,98935.00
2022-11-27T09:21:57.398Z,98952.00
2022-11-27T09:28:40.910Z,98963.00
2022-11-27T09:35:27.553Z,98963.00
2022-11-27T09:42:31.278Z,98974.00
2022-11-27T09:49:19.273Z,98944.00
2022-11-27T09:52:17.167Z,98930.00
2022-11-27T09:59:02.854Z,98930.00
2022-11-27T10:06:02.994Z,98940.00
2022-11-27T10:13:00.804Z,98917.00
2022-11-27T10:20:03.108Z,98893.00
2022-11-27T10:26:54.677Z,98899.00
2022-11-27T10:33:43.936Z,98874.00
2022-11-27T10:40:33.537Z,98852.00
2022-11-27T10:47:27.466Z,98857.00
2022-11-27T10:54:17.547Z,98854.00
2022-11-27T11:01:08.593Z,98843.00
2022-11-27T11:08:02.063Z,98845.00
2022-11-27T11:14:52.958Z,98826.00
2022-11-27T11:21:45.106Z,98803.00
2022-11-27T11:28:27.823Z,98787.00
2022-11-27T11:35:32.364Z,98792.00
2022-11-27T11:42:24.418Z,98756.00
2022-11-27T11:49:13.397Z,98705.00
2022-11-27T11:52:22.232Z,98728.00
2022-11-27T11:59:05.752Z,98714.00
2022-11-27T12:06:28.135Z,98720.00
2022-11-27T12:13:33.239Z,98689.00
2022-11-27T12:16:56.215Z,98686.00
2022-11-27T12:23:57.341Z,98669.00
2022-11-27T12:30:52.061Z,98682.00
2022-11-27T12:37:49.548Z,98665.00
2022-11-27T12:44:54.289Z,98652.00
2022-11-27T12:47:46.974Z,98656.00
2022-11-27T12:50:30.402Z,98621.00
2022-11-27T12:57:22.223Z,98627.00
2022-11-27T13:04:18.114Z,98627.00
2022-11-27T13:11:11.141Z,98634.00
2022-11-27T13:18:13.937Z,98625.00
2022-11-27T13:25:04.709Z,98616.00
2022-11-27T13:31:58.915Z,98610.00
2022-11-27T13:38:46.781Z,98604.00
2022-11-27T13:45:38.718Z,98587.00
2022-11-27T13:56:37.868Z,98576.00
2022-11-27T14:03:27.537Z,98575.00
2022-11-27T14:10:19.253Z,98585.00
2022-11-27T14:17:08.974Z,98587.00
2022-11-27T14:23:57.038Z,98596.00
2022-11-27T14:30:50.292Z,98582.00
2022-11-27T14:37:37.064Z,98573.00
2022-11-27T14:44:22.749Z,98543.00
2022-11-27T14:51:20.483Z,98557.00
2022-11-27T14:55:05.597Z,98551.00
2022-11-27T15:02:04.679Z,98515.00
2022-11-27T15:09:09.111Z,98510.00
2022-11-27T15:16:04.521Z,98480.00
2022-11-27T15:22:57.219Z,98462.00
2022-11-27T15:30:00.363Z,98475.00
2022-11-27T15:36:51.192Z,98456.00
2022-11-27T15:43:32.745Z,98425.00
2022-11-27T15:50:31.027Z,98456.00
2022-11-27T15:57:17.864Z,98434.00
2022-11-27T16:04:00.091Z,98455.00
2022-11-27T16:10:48.299Z,98450.00
2022-11-27T16:14:13.710Z,98451.00
2022-11-27T16:21:07.984Z,98457.00
2022-11-27T16:28:00.979Z,98462.00
2022-11-27T16:34:52.746Z,98456.00
2022-11-27T16:41:41.811Z,98470.00
2022-11-27T16:48:23.183Z,98455.00
2022-11-27T16:59:25.111Z,98430.00
2022-11-27T17:06:19.467Z,98431.00
2022-11-27T17:09:43.207Z,98425.00
2022-11-27T17:12:17.861Z,98403.00
2022-11-27T17:19:00.156Z,98398.00
2022-11-27T17:25:48.265Z,98374.00
2022-11-27T17:32:35.152Z,98362.00
2022-11-27T17:39:17.110Z,98310.00
2022-11-27T17:46:08.850Z,98335.00
2022-11-27T17:52:57.078Z,98323.00
2022-11-27T17:59:51.319Z,98333.00
2022-11-27T18:06:43.299Z,98310.00
2022-11-27T18:09:43.689Z,98316.00
2022-11-27T18:12:18.216Z,98331.00
2022-11-27T18:19:06.803Z,98311.00
2022-11-27T18:25:55.549Z,98300.00
2022-11-27T18:32:41.982Z,98268.00
2022-11-27T18:39:23.519Z,98278.00
2022-11-27T18:46:15.513Z,98279.00
2022-11-27T18:53:04.560Z,98272.00
2022-11-27T18:59:54.815Z,98266.00
2022-11-27T19:06:42.693Z,98273.00
2022-11-27T19:09:43.285Z,98262.00
2022-11-27T19:12:20.211Z,98271.00
2022-11-27T19:19:15.068Z,98266.00
2022-11-27T19:26:19.220Z,98231.00
2022-11-27T19:33:08.246Z,98226.00
2022-11-27T19:40:01.361Z,98241.00
2022-11-27T19:46:52.353Z,98193.00
2022-11-27T19:53:37.912Z,98182.00
2022-11-27T20:00:33.567Z,98177.00
2022-11-27T20:07:21.769Z,98181.00
2022-11-27T20:14:15.881Z,98150.00
2022-11-27T20:21:31.596Z,98172.00
2022-11-27T20:35:45.870Z,98155.00
2022-11-27T20:42:44.953Z,98170.00
2022-11-27T20:49:28.090Z,98139.00
2022-11-27T21:00:30.769Z,98158.00
2022-11-27T21:14:15.845Z,98131.00
2022-11-27T21:21:16.014Z,98133.00
2022-11-27T21:28:17.951Z,98106.00
2022-11-27T21:30:58.581Z,98123.00
2022-11-27T21:33:37.642Z,98116.00
2022-11-27T21:40:34.171Z,98103.00
2022-11-27T21:47:25.875Z,98106.00
2022-11-27T21:54:12.973Z,98107.00
2022-11-27T22:01:02.377Z,98093.00
2022-11-27T22:07:49.179Z,98095.00
2022-11-27T22:14:42.258Z,98105.00
2022-11-27T22:21:33.742Z,98077.00
2022-11-27T22:28:20.976Z,98073.00
2022-11-27T22:35:21.450Z,98088.00
2022-11-27T22:43:09.263Z,98081.00
2022-11-27T22:46:40.646Z,98072.00
2022-11-27T22:53:31.410Z,98067.00
2022-11-27T23:00:50.446Z,98034.00
2022-11-27T23:07:37.263Z,98037.00
2022-11-27T23:14:19.164Z,97985.00
2022-11-27T23:21:14.337Z,97994.00
2022-11-27T23:28:01.436Z,98009.00
2022-11-27T23:34:48.741Z,97998.00
2022-11-27T23:41:40.560Z,97996.00
2022-11-27T23:48:20.553Z,97925.00
2022-11-27T23:55:08.352Z,97936.00
2022-11-27T23:58:52.482Z,97943.00
